Terminal Aerodrome Forecast
Issued by NWS Shreveport, LA

Home | Current Version | Previous Version | Text Only | Print | Product List | Glossary On
Versions: 1 2 3 4 5 6 7 8 9 10 11 12 13 14
000
FTUS44 KSHV 041906 AAA
TAFMLU
TAF AMD
KMLU 041906Z 0419/0518 36008KT P6SM SCT040
      TEMPO 0421/0501 VRB15G25KT 1SM +TSRA BR OVC015CB
     FM050300 20004KT P6SM BKN080
      TEMPO 0508/0512 3SM BR BKN020
     FM051200 22006KT P6SM VCTS BKN030CB=

USA.gov is the U.S. government's official web portal to all federal, state and local government web resources and services.